createdAt,value
2018-08-30T00:02:56.845Z,14.37
2018-08-30T00:06:01.144Z,14.93
2018-08-30T00:09:06.410Z,12.87
2018-08-30T00:12:10.738Z,13.83
2018-08-30T00:15:15.128Z,16.00
2018-08-30T00:18:19.437Z,13.00
2018-08-30T00:21:23.733Z,15.20
2018-08-30T00:24:28.067Z,14.50
2018-08-30T00:27:32.369Z,11.53
2018-08-30T00:30:36.684Z,12.77
2018-08-30T00:33:41.128Z,13.57
2018-08-30T00:36:45.429Z,12.90
2018-08-30T00:39:49.699Z,12.47
2018-08-30T00:42:54.076Z,11.57
2018-08-30T00:45:58.369Z,10.53
2018-08-30T00:49:02.735Z,9.47
2018-08-30T00:52:07.041Z,13.93
2018-08-30T00:55:11.710Z,10.83
2018-08-30T00:58:15.984Z,10.27
2018-08-30T01:01:20.274Z,10.20
2018-08-30T01:04:24.522Z,12.67
2018-08-30T01:07:28.836Z,11.97
2018-08-30T01:10:33.109Z,11.00
2018-08-30T01:13:37.470Z,10.93
2018-08-30T01:16:41.819Z,12.47
2018-08-30T01:19:46.131Z,12.97
2018-08-30T01:22:50.424Z,12.63
2018-08-30T01:25:54.753Z,12.40
2018-08-30T01:28:59.061Z,11.33
2018-08-30T01:32:03.729Z,13.33
2018-08-30T01:35:08.164Z,12.83
2018-08-30T01:38:12.449Z,14.37
2018-08-30T01:41:16.700Z,12.53
2018-08-30T01:44:20.967Z,13.67
2018-08-30T01:47:25.442Z,14.80
2018-08-30T01:50:29.824Z,12.50
2018-08-30T01:53:34.136Z,12.23
2018-08-30T01:56:38.449Z,13.00
2018-08-30T01:59:42.908Z,14.00
2018-08-30T02:02:47.227Z,17.83
2018-08-30T02:05:51.519Z,16.40
2018-08-30T02:08:55.819Z,14.50
2018-08-30T02:12:00.517Z,14.57
2018-08-30T02:15:04.796Z,11.70
2018-08-30T02:18:09.092Z,13.90
2018-08-30T02:21:13.434Z,16.67
2018-08-30T02:24:17.688Z,15.13
2018-08-30T02:27:21.993Z,14.97
2018-08-30T02:30:26.288Z,12.70
2018-08-30T02:33:30.550Z,15.67
2018-08-30T02:36:34.933Z,18.10
2018-08-30T02:39:39.188Z,12.60
2018-08-30T02:42:43.590Z,14.37
2018-08-30T02:45:47.873Z,15.40
2018-08-30T02:48:52.374Z,14.90
2018-08-30T02:51:56.604Z,13.90
2018-08-30T02:55:00.929Z,16.37
2018-08-30T02:58:05.264Z,14.70
2018-08-30T03:01:09.575Z,15.67
2018-08-30T03:04:13.913Z,17.07
2018-08-30T03:07:18.201Z,16.77
2018-08-30T03:10:22.529Z,14.47
2018-08-30T03:13:26.843Z,20.63
2018-08-30T03:16:31.164Z,21.57
2018-08-30T03:19:35.490Z,14.73
2018-08-30T03:22:40.605Z,17.13
2018-08-30T03:25:44.938Z,17.27
2018-08-30T03:28:49.252Z,18.60
2018-08-30T03:31:53.537Z,14.87
2018-08-30T03:34:58.363Z,16.70
2018-08-30T03:38:02.726Z,19.03
2018-08-30T03:41:07.039Z,23.17
2018-08-30T03:44:11.371Z,19.40
2018-08-30T03:47:15.647Z,20.67
2018-08-30T03:50:20.013Z,17.27
2018-08-30T03:53:24.352Z,23.17
2018-08-30T03:56:28.631Z,21.10
2018-08-30T03:59:33.241Z,20.53
2018-08-30T04:02:37.591Z,23.43
2018-08-30T04:05:41.960Z,25.17
2018-08-30T04:08:46.237Z,27.63
2018-08-30T04:11:50.699Z,28.03
2018-08-30T04:14:54.964Z,19.90
2018-08-30T04:17:59.443Z,25.23
2018-08-30T04:21:03.765Z,28.73
2018-08-30T04:24:09.098Z,23.50
2018-08-30T04:27:13.558Z,31.40
2018-08-30T04:30:18.073Z,24.60
2018-08-30T04:33:22.426Z,28.80
2018-08-30T04:36:27.009Z,28.17
2018-08-30T04:39:31.283Z,27.17
2018-08-30T04:42:35.621Z,30.87
2018-08-30T04:45:39.936Z,27.23
2018-08-30T04:48:44.195Z,27.50
2018-08-30T04:51:48.541Z,33.03
2018-08-30T04:54:52.847Z,30.63
2018-08-30T04:57:57.206Z,29.73
2018-08-30T05:01:01.501Z,36.00
2018-08-30T05:04:06.419Z,26.67
2018-08-30T05:07:10.727Z,28.80
2018-08-30T05:10:14.884Z,29.23
2018-08-30T05:13:19.174Z,30.17
2018-08-30T05:16:23.418Z,26.83
2018-08-30T05:19:27.670Z,28.10
2018-08-30T05:22:31.954Z,27.50
2018-08-30T05:25:36.538Z,28.97
2018-08-30T05:28:40.817Z,28.13
2018-08-30T05:31:45.099Z,22.17
2018-08-30T05:34:49.420Z,23.30
2018-08-30T05:37:53.850Z,26.77
2018-08-30T05:40:58.124Z,26.10
2018-08-30T05:44:02.572Z,25.80
2018-08-30T05:47:06.945Z,27.03
2018-08-30T05:50:11.248Z,27.73
2018-08-30T05:53:15.565Z,22.70
2018-08-30T05:56:19.891Z,24.17
2018-08-30T05:59:24.189Z,25.07
2018-08-30T06:02:29.475Z,21.37
2018-08-30T06:05:33.706Z,25.57
2018-08-30T06:08:38.068Z,24.63
2018-08-30T06:11:46.519Z,24.53
2018-08-30T06:14:50.808Z,23.50
2018-08-30T06:17:55.153Z,25.67
2018-08-30T06:20:59.444Z,24.00
2018-08-30T06:24:03.860Z,24.90
2018-08-30T06:27:08.203Z,27.00
2018-08-30T06:30:12.454Z,23.77
2018-08-30T06:33:16.820Z,20.17
2018-08-30T06:36:21.088Z,21.60
2018-08-30T06:39:25.458Z,21.60
2018-08-30T06:42:29.801Z,20.57
2018-08-30T06:45:34.307Z,22.53
2018-08-30T06:48:38.900Z,19.87
2018-08-30T06:51:43.413Z,21.37
2018-08-30T06:54:47.805Z,22.50
2018-08-30T06:57:52.090Z,23.20
2018-08-30T07:00:56.379Z,22.83
2018-08-30T07:04:00.751Z,22.43
2018-08-30T07:07:05.037Z,23.23
2018-08-30T07:10:09.408Z,26.67
2018-08-30T07:13:13.706Z,25.27
2018-08-30T07:16:18.120Z,24.37
2018-08-30T07:19:22.457Z,25.93
2018-08-30T07:22:26.712Z,22.53
2018-08-30T07:25:31.017Z,25.23
2018-08-30T07:28:35.524Z,26.83
2018-08-30T07:31:39.807Z,24.57
2018-08-30T07:34:44.200Z,23.50
2018-08-30T07:37:48.470Z,28.47
2018-08-30T07:40:52.767Z,25.93
2018-08-30T07:43:57.139Z,24.00
2018-08-30T07:47:01.395Z,23.00
2018-08-30T07:50:06.261Z,24.20
2018-08-30T07:53:10.334Z,23.43
2018-08-30T07:56:14.684Z,25.17
2018-08-30T07:59:19.086Z,22.20
2018-08-30T08:02:23.397Z,23.20
2018-08-30T08:05:27.785Z,21.10
2018-08-30T08:08:32.053Z,22.10
2018-08-30T08:11:36.176Z,20.97
2018-08-30T08:14:40.501Z,25.03
2018-08-30T08:17:45.001Z,23.77
2018-08-30T08:20:49.287Z,22.73
2018-08-30T08:23:53.674Z,17.70
2018-08-30T08:26:57.976Z,17.30
2018-08-30T08:30:02.118Z,16.33
2018-08-30T08:33:06.399Z,18.77
2018-08-30T08:36:10.657Z,15.83
2018-08-30T08:39:15.046Z,20.00
2018-08-30T08:42:19.384Z,15.77
2018-08-30T08:45:23.807Z,16.10
2018-08-30T08:48:28.107Z,15.73
2018-08-30T08:51:32.427Z,18.93
2018-08-30T08:54:36.729Z,16.40
2018-08-30T08:57:41.072Z,18.87
2018-08-30T09:00:45.439Z,18.93
2018-08-30T09:03:49.788Z,23.47
2018-08-30T09:06:54.180Z,23.73
2018-08-30T09:09:58.524Z,21.17
2018-08-30T09:13:02.883Z,17.17
2018-08-30T09:16:07.147Z,17.50
2018-08-30T09:19:11.523Z,23.50
2018-08-30T09:22:15.827Z,21.07
2018-08-30T09:25:20.109Z,21.87
2018-08-30T09:28:24.489Z,18.03
2018-08-30T09:31:28.814Z,25.80
2018-08-30T09:34:33.132Z,20.23
2018-08-30T09:37:39.086Z,25.33
2018-08-30T09:40:43.427Z,23.70
2018-08-30T09:43:47.779Z,23.93
2018-08-30T09:46:51.932Z,22.87
2018-08-30T09:49:56.246Z,21.77
2018-08-30T09:53:00.673Z,23.10
2018-08-30T09:56:05.255Z,20.93
2018-08-30T09:59:09.318Z,21.53
2018-08-30T10:02:18.948Z,22.90
2018-08-30T10:05:23.286Z,21.20
2018-08-30T10:08:27.586Z,25.63
2018-08-30T10:11:31.740Z,20.77
2018-08-30T10:14:36.078Z,19.10
2018-08-30T10:17:40.517Z,23.23
2018-08-30T10:20:44.864Z,20.53
2018-08-30T10:23:48.966Z,19.50
2018-08-30T10:26:53.314Z,21.03
2018-08-30T10:29:57.676Z,18.33
2018-08-30T10:33:03.199Z,16.50
2018-08-30T10:36:07.563Z,16.17
2018-08-30T10:39:11.835Z,16.10
2018-08-30T10:42:16.456Z,12.57
2018-08-30T10:45:20.854Z,10.37
2018-08-30T10:48:25.102Z,10.47
2018-08-30T10:51:29.475Z,9.03
2018-08-30T10:54:33.753Z,7.07
2018-08-30T10:57:38.093Z,5.73
2018-08-30T11:00:42.144Z,7.70
2018-08-30T11:03:46.484Z,10.50
2018-08-30T11:06:50.796Z,7.03
2018-08-30T11:09:55.241Z,6.13
2018-08-30T11:12:59.429Z,6.77
2018-08-30T11:16:04.636Z,6.80
2018-08-30T11:32:50.458Z,11.63
2018-08-30T11:35:54.764Z,11.87
2018-08-30T11:38:59.055Z,11.37
2018-08-30T11:42:03.484Z,9.73
2018-08-30T11:45:09.375Z,12.43
2018-08-30T11:48:13.727Z,16.60
2018-08-30T11:51:18.082Z,11.67
2018-08-30T11:54:22.596Z,11.90
2018-08-30T11:57:26.966Z,14.63
2018-08-30T12:00:31.363Z,18.47
2018-08-30T12:03:35.794Z,13.13
2018-08-30T12:06:40.190Z,12.70
2018-08-30T12:09:44.511Z,14.33
2018-08-30T12:12:48.893Z,16.43
2018-08-30T12:15:53.478Z,21.13
2018-08-30T12:18:57.966Z,22.93
2018-08-30T12:22:02.292Z,21.53
2018-08-30T12:25:06.771Z,22.83
2018-08-30T12:28:11.144Z,18.90
2018-08-30T12:31:15.630Z,19.10
2018-08-30T12:34:20.104Z,19.53
2018-08-30T12:37:24.792Z,17.30
2018-08-30T12:40:29.249Z,17.37
2018-08-30T12:43:33.609Z,17.47
2018-08-30T12:46:38.010Z,14.17
2018-08-30T12:49:42.477Z,16.63
2018-08-30T12:52:46.811Z,17.43
2018-08-30T12:55:51.221Z,16.67
2018-08-30T13:00:00.143Z,20.77
2018-08-30T13:03:04.683Z,21.60
2018-08-30T13:06:09.173Z,19.80
2018-08-30T13:09:15.345Z,20.83
2018-08-30T13:12:19.579Z,18.80
2018-08-30T13:15:24.097Z,15.43
2018-08-30T13:18:28.427Z,17.17
2018-08-30T13:21:32.891Z,15.10
2018-08-30T13:24:37.433Z,16.27
2018-08-30T13:27:41.757Z,12.17
2018-08-30T13:30:46.416Z,13.57
2018-08-30T13:33:50.917Z,12.83
2018-08-30T13:36:56.559Z,11.93
2018-08-30T13:40:01.098Z,10.43
2018-08-30T13:43:05.500Z,17.50
2018-08-30T13:46:09.772Z,16.33
2018-08-30T13:49:13.896Z,9.70
2018-08-30T13:52:18.379Z,10.93
2018-08-30T13:55:22.828Z,10.83
2018-08-30T13:58:27.403Z,12.40
2018-08-30T14:01:31.893Z,9.50
2018-08-30T14:04:35.706Z,10.97
2018-08-30T14:07:40.171Z,12.70
2018-08-30T14:10:44.588Z,13.07
2018-08-30T14:13:48.893Z,11.37
2018-08-30T14:16:52.978Z,10.30
2018-08-30T14:19:57.387Z,13.03
2018-08-30T14:23:01.724Z,12.37
2018-08-30T14:26:05.944Z,13.30
2018-08-30T14:29:10.413Z,12.07
2018-08-30T14:32:14.766Z,12.63
2018-08-30T14:35:19.152Z,9.63
2018-08-30T14:38:23.552Z,13.20
2018-08-30T14:41:28.127Z,11.10
2018-08-30T14:44:32.255Z,10.87
2018-08-30T14:47:36.788Z,11.63
2018-08-30T14:50:41.118Z,13.67
2018-08-30T14:53:45.443Z,9.03
2018-08-30T14:56:50.232Z,8.63
2018-08-30T14:59:54.547Z,7.77
2018-08-30T15:02:58.955Z,12.93
2018-08-30T15:06:03.405Z,13.73
2018-08-30T15:09:09.032Z,16.10
2018-08-30T15:12:13.548Z,12.10
2018-08-30T15:15:17.943Z,8.23
2018-08-30T15:18:22.262Z,7.23
2018-08-30T15:21:26.665Z,8.53
2018-08-30T15:24:31.013Z,7.63
2018-08-30T15:27:35.671Z,8.27
2018-08-30T15:30:39.951Z,6.03
2018-08-30T15:33:44.451Z,7.40
2018-08-30T15:36:48.818Z,10.57
2018-08-30T15:39:53.208Z,6.83
2018-08-30T15:42:57.501Z,8.80
2018-08-30T15:46:01.857Z,5.27
2018-08-30T15:49:06.193Z,4.47
2018-08-30T15:52:10.559Z,8.30
2018-08-30T15:55:14.912Z,8.57
2018-08-30T15:58:19.241Z,9.83
2018-08-30T16:01:23.657Z,10.50
2018-08-30T16:04:28.082Z,6.50
2018-08-30T16:07:32.509Z,7.87
2018-08-30T16:10:36.893Z,7.50
2018-08-30T16:13:41.236Z,11.73
2018-08-30T16:16:45.528Z,8.03
2018-08-30T16:19:49.869Z,6.67
2018-08-30T16:23:27.762Z,7.70
2018-08-30T16:26:32.157Z,9.03
2018-08-30T16:29:36.517Z,7.37
2018-08-30T16:32:40.966Z,6.73
2018-08-30T16:35:45.396Z,7.67
2018-08-30T16:38:49.761Z,7.53
2018-08-30T16:41:54.354Z,10.13
2018-08-30T16:44:59.287Z,7.33
2018-08-30T16:48:03.767Z,7.67
2018-08-30T16:51:08.380Z,11.33
2018-08-30T16:54:12.714Z,11.03
2018-08-30T16:57:16.994Z,11.27
2018-08-30T17:00:21.268Z,7.73
2018-08-30T17:03:25.662Z,11.27
2018-08-30T17:06:29.970Z,8.50
2018-08-30T17:09:34.327Z,10.27
2018-08-30T17:12:38.741Z,9.40
2018-08-30T17:15:43.146Z,10.93
2018-08-30T17:18:50.708Z,12.23
2018-08-30T17:21:55.041Z,8.83
2018-08-30T17:24:59.412Z,11.67
2018-08-30T17:28:03.724Z,8.03
2018-08-30T17:31:08.187Z,9.47
2018-08-30T17:34:12.523Z,7.97
2018-08-30T17:37:16.890Z,9.40
2018-08-30T17:40:21.346Z,7.63
2018-08-30T17:43:25.814Z,5.43
2018-08-30T17:46:30.222Z,11.20
2018-08-30T17:49:34.492Z,6.93
2018-08-30T17:52:38.837Z,9.57
2018-08-30T17:55:43.221Z,9.10
2018-08-30T17:58:47.661Z,9.13
2018-08-30T18:01:52.026Z,8.30
2018-08-30T18:04:56.486Z,13.33
2018-08-30T18:08:01.891Z,9.93
2018-08-30T18:11:06.517Z,11.80
2018-08-30T18:14:10.946Z,8.73
2018-08-30T18:17:15.417Z,8.17
2018-08-30T18:20:19.937Z,8.57
2018-08-30T18:23:24.482Z,14.17
2018-08-30T18:26:28.980Z,8.30
2018-08-30T18:29:33.390Z,8.17
2018-08-30T18:32:38.094Z,7.03
2018-08-30T18:35:42.628Z,8.20
2018-08-30T18:38:47.069Z,7.73
2018-08-30T18:41:52.742Z,12.27
2018-08-30T18:44:57.342Z,7.20
2018-08-30T18:48:01.879Z,7.00
2018-08-30T18:51:06.515Z,15.20
2018-08-30T18:54:11.237Z,9.23
2018-08-30T18:57:15.651Z,15.27
2018-08-30T19:00:20.190Z,8.50
2018-08-30T19:03:24.571Z,7.13
2018-08-30T19:06:29.036Z,7.63
2018-08-30T19:09:33.598Z,7.90
2018-08-30T19:12:38.581Z,11.77
2018-08-30T19:15:48.344Z,12.13
2018-08-30T19:18:58.070Z,9.47
2018-08-30T19:22:02.732Z,7.37
2018-08-30T19:25:12.513Z,10.20
2018-08-30T19:28:25.718Z,11.03
2018-08-30T19:31:30.109Z,8.63
2018-08-30T19:34:34.451Z,9.53
2018-08-30T19:37:38.852Z,6.90
2018-08-30T19:40:48.570Z,8.10
2018-08-30T19:43:53.886Z,9.30
2018-08-30T19:46:58.373Z,11.23
2018-08-30T19:50:02.690Z,16.20
2018-08-30T19:53:07.114Z,7.80
2018-08-30T19:56:12.374Z,9.10
2018-08-30T19:59:16.715Z,9.47
2018-08-30T20:02:21.120Z,8.03
2018-08-30T20:05:25.527Z,7.93
2018-08-30T20:08:29.881Z,8.30
2018-08-30T20:11:35.191Z,7.53
2018-08-30T20:14:39.516Z,10.40
2018-08-30T20:17:43.913Z,6.17
2018-08-30T20:20:48.256Z,9.80
2018-08-30T20:23:52.660Z,9.60
2018-08-30T20:26:57.112Z,11.63
2018-08-30T20:30:01.546Z,11.33
2018-08-30T20:33:06.493Z,7.63
2018-08-30T20:36:10.847Z,6.00
2018-08-30T20:39:15.172Z,13.33
2018-08-30T20:42:20.570Z,11.57
2018-08-30T20:45:25.079Z,7.93
2018-08-30T20:48:29.387Z,7.67
2018-08-30T20:51:33.704Z,9.87
2018-08-30T20:54:38.027Z,7.67
2018-08-30T20:57:42.362Z,6.77
2018-08-30T21:00:47.252Z,10.93
2018-08-30T21:03:51.589Z,8.47
2018-08-30T21:06:55.885Z,10.33
2018-08-30T21:10:00.261Z,8.37
2018-08-30T21:13:04.706Z,12.33
2018-08-30T21:16:09.105Z,11.03
2018-08-30T21:19:13.403Z,7.73
2018-08-30T21:22:17.745Z,11.73
2018-08-30T21:25:22.064Z,12.10
2018-08-30T21:28:26.633Z,6.97
2018-08-30T21:31:30.995Z,8.07
2018-08-30T21:34:35.482Z,10.30
2018-08-30T21:37:39.807Z,11.43
2018-08-30T21:40:44.150Z,10.60
2018-08-30T21:43:48.536Z,5.67
2018-08-30T21:46:52.819Z,8.07
2018-08-30T21:49:57.150Z,10.30
2018-08-30T21:53:01.415Z,9.33
2018-08-30T21:56:05.704Z,11.97
2018-08-30T21:59:10.000Z,15.43
2018-08-30T22:02:14.331Z,6.97
2018-08-30T22:05:18.660Z,13.53
2018-08-30T22:08:22.979Z,9.60
2018-08-30T22:11:27.307Z,9.07
2018-08-30T22:14:31.639Z,14.03
2018-08-30T22:17:35.917Z,7.70
2018-08-30T22:20:40.265Z,8.10
2018-08-30T22:23:44.639Z,9.83
2018-08-30T22:26:49.012Z,9.27
2018-08-30T22:29:53.269Z,6.17
2018-08-30T22:32:57.649Z,13.83
2018-08-30T22:36:02.194Z,7.73
2018-08-30T22:39:07.899Z,10.63
2018-08-30T22:42:12.176Z,9.90
2018-08-30T22:45:16.464Z,8.20
2018-08-30T22:48:20.963Z,11.63
2018-08-30T22:51:25.306Z,9.40
2018-08-30T22:54:29.791Z,11.10
2018-08-30T22:57:34.083Z,8.50
2018-08-30T23:00:38.402Z,9.27
2018-08-30T23:03:42.713Z,6.80
2018-08-30T23:06:47.080Z,12.37
2018-08-30T23:09:51.368Z,10.87
2018-08-30T23:12:55.678Z,17.03
2018-08-30T23:15:59.970Z,7.37
2018-08-30T23:19:04.600Z,9.30
2018-08-30T23:22:08.957Z,11.57
2018-08-30T23:25:13.262Z,7.47
2018-08-30T23:28:17.608Z,11.30
2018-08-30T23:31:21.921Z,12.93
2018-08-30T23:34:26.326Z,8.00
2018-08-30T23:37:30.603Z,7.87
2018-08-30T23:40:34.871Z,6.70
2018-08-30T23:43:39.217Z,7.17
2018-08-30T23:46:43.494Z,9.43
2018-08-30T23:49:47.834Z,13.57
2018-08-30T23:52:52.144Z,12.57
2018-08-30T23:55:56.394Z,12.80
2018-08-30T23:59:17.877Z,9.23
